sensor_id;sensor_type;location;lat;lon;timestamp;temperature;humidity
15105;DHT22;7653;48.994;9.212;2023-09-30T00:01:11;17.00;67.00
15105;DHT22;7653;48.994;9.212;2023-09-30T00:03:37;16.90;67.90
15105;DHT22;7653;48.994;9.212;2023-09-30T00:06:03;16.80;67.60
15105;DHT22;7653;48.994;9.212;2023-09-30T00:08:29;16.80;67.70
15105;DHT22;7653;48.994;9.212;2023-09-30T00:10:55;16.80;67.30
15105;DHT22;7653;48.994;9.212;2023-09-30T00:13:20;16.80;66.50
15105;DHT22;7653;48.994;9.212;2023-09-30T00:15:47;16.80;66.30
15105;DHT22;7653;48.994;9.212;2023-09-30T00:18:12;16.70;67.20
15105;DHT22;7653;48.994;9.212;2023-09-30T00:20:39;16.70;67.60
15105;DHT22;7653;48.994;9.212;2023-09-30T00:23:04;16.70;69.00
15105;DHT22;7653;48.994;9.212;2023-09-30T00:25:32;16.80;68.50
15105;DHT22;7653;48.994;9.212;2023-09-30T00:27:58;16.70;68.80
15105;DHT22;7653;48.994;9.212;2023-09-30T00:30:24;16.60;70.50
15105;DHT22;7653;48.994;9.212;2023-09-30T00:32:50;16.70;69.80
15105;DHT22;7653;48.994;9.212;2023-09-30T00:35:15;16.70;70.00
15105;DHT22;7653;48.994;9.212;2023-09-30T00:37:42;16.70;70.00
15105;DHT22;7653;48.994;9.212;2023-09-30T00:40:08;16.70;70.20
15105;DHT22;7653;48.994;9.212;2023-09-30T00:42:41;16.70;69.00
15105;DHT22;7653;48.994;9.212;2023-09-30T00:45:07;16.70;69.40
15105;DHT22;7653;48.994;9.212;2023-09-30T00:47:35;16.70;69.20
15105;DHT22;7653;48.994;9.212;2023-09-30T00:50:02;16.70;69.30
15105;DHT22;7653;48.994;9.212;2023-09-30T00:52:30;16.70;69.00
15105;DHT22;7653;48.994;9.212;2023-09-30T00:54:57;16.70;68.70
15105;DHT22;7653;48.994;9.212;2023-09-30T00:57:24;16.70;69.00
15105;DHT22;7653;48.994;9.212;2023-09-30T00:59:50;16.70;69.10
15105;DHT22;7653;48.994;9.212;2023-09-30T01:02:17;16.70;68.80
15105;DHT22;7653;48.994;9.212;2023-09-30T01:04:44;16.70;69.30
15105;DHT22;7653;48.994;9.212;2023-09-30T01:07:09;16.60;69.50
15105;DHT22;7653;48.994;9.212;2023-09-30T01:09:36;16.60;70.10
15105;DHT22;7653;48.994;9.212;2023-09-30T01:12:02;16.60;70.20
15105;DHT22;7653;48.994;9.212;2023-09-30T01:14:32;16.60;70.40
15105;DHT22;7653;48.994;9.212;2023-09-30T01:17:03;16.60;70.10
15105;DHT22;7653;48.994;9.212;2023-09-30T01:19:29;16.60;69.90
15105;DHT22;7653;48.994;9.212;2023-09-30T01:21:56;16.60;70.30
15105;DHT22;7653;48.994;9.212;2023-09-30T01:24:28;16.60;70.80
15105;DHT22;7653;48.994;9.212;2023-09-30T01:26:53;16.60;70.50
15105;DHT22;7653;48.994;9.212;2023-09-30T01:29:19;16.50;71.30
15105;DHT22;7653;48.994;9.212;2023-09-30T01:31:46;16.50;70.90
15105;DHT22;7653;48.994;9.212;2023-09-30T01:34:15;16.50;71.50
15105;DHT22;7653;48.994;9.212;2023-09-30T01:36:42;16.40;73.10
15105;DHT22;7653;48.994;9.212;2023-09-30T01:39:11;16.30;73.00
15105;DHT22;7653;48.994;9.212;2023-09-30T01:41:38;16.10;74.70
15105;DHT22;7653;48.994;9.212;2023-09-30T01:44:04;16.20;75.40
15105;DHT22;7653;48.994;9.212;2023-09-30T01:46:30;16.20;75.40
15105;DHT22;7653;48.994;9.212;2023-09-30T01:48:56;16.10;77.00
15105;DHT22;7653;48.994;9.212;2023-09-30T01:51:21;16.10;76.80
15105;DHT22;7653;48.994;9.212;2023-09-30T01:53:47;16.10;77.80
15105;DHT22;7653;48.994;9.212;2023-09-30T01:56:13;16.20;76.90
15105;DHT22;7653;48.994;9.212;2023-09-30T01:58:39;16.20;75.70
15105;DHT22;7653;48.994;9.212;2023-09-30T02:01:05;16.30;76.00
15105;DHT22;7653;48.994;9.212;2023-09-30T02:03:31;16.40;75.50
15105;DHT22;7653;48.994;9.212;2023-09-30T02:05:57;16.40;74.80
15105;DHT22;7653;48.994;9.212;2023-09-30T02:08:23;16.40;73.20
15105;DHT22;7653;48.994;9.212;2023-09-30T02:10:49;16.40;72.50
15105;DHT22;7653;48.994;9.212;2023-09-30T02:13:17;16.40;72.40
15105;DHT22;7653;48.994;9.212;2023-09-30T02:15:43;16.40;72.90
15105;DHT22;7653;48.994;9.212;2023-09-30T02:18:09;16.30;73.10
15105;DHT22;7653;48.994;9.212;2023-09-30T02:20:35;16.20;74.60
15105;DHT22;7653;48.994;9.212;2023-09-30T02:23:05;16.10;75.10
15105;DHT22;7653;48.994;9.212;2023-09-30T02:25:31;16.10;75.30
15105;DHT22;7653;48.994;9.212;2023-09-30T02:27:57;16.10;75.30
15105;DHT22;7653;48.994;9.212;2023-09-30T02:30:23;16.00;75.20
15105;DHT22;7653;48.994;9.212;2023-09-30T02:32:49;15.90;76.70
15105;DHT22;7653;48.994;9.212;2023-09-30T02:35:15;15.90;76.90
15105;DHT22;7653;48.994;9.212;2023-09-30T02:37:41;15.90;77.60
15105;DHT22;7653;48.994;9.212;2023-09-30T02:40:07;15.90;76.00
15105;DHT22;7653;48.994;9.212;2023-09-30T02:42:40;16.00;76.20
15105;DHT22;7653;48.994;9.212;2023-09-30T02:45:06;16.00;75.20
15105;DHT22;7653;48.994;9.212;2023-09-30T02:47:34;16.00;75.20
15105;DHT22;7653;48.994;9.212;2023-09-30T02:50:00;15.90;76.20
15105;DHT22;7653;48.994;9.212;2023-09-30T02:52:26;15.90;77.80
15105;DHT22;7653;48.994;9.212;2023-09-30T02:54:52;15.90;77.40
15105;DHT22;7653;48.994;9.212;2023-09-30T02:57:18;15.90;76.70
15105;DHT22;7653;48.994;9.212;2023-09-30T02:59:44;15.90;76.90
15105;DHT22;7653;48.994;9.212;2023-09-30T03:02:10;15.90;76.70
15105;DHT22;7653;48.994;9.212;2023-09-30T03:04:37;15.90;76.60
15105;DHT22;7653;48.994;9.212;2023-09-30T03:07:02;15.80;77.00
15105;DHT22;7653;48.994;9.212;2023-09-30T03:09:28;15.80;77.80
15105;DHT22;7653;48.994;9.212;2023-09-30T03:11:54;15.80;78.30
15105;DHT22;7653;48.994;9.212;2023-09-30T03:14:22;15.70;78.90
15105;DHT22;7653;48.994;9.212;2023-09-30T03:16:48;15.70;79.60
15105;DHT22;7653;48.994;9.212;2023-09-30T03:19:14;15.50;80.00
15105;DHT22;7653;48.994;9.212;2023-09-30T03:21:42;15.50;80.40
15105;DHT22;7653;48.994;9.212;2023-09-30T03:24:08;15.50;80.70
15105;DHT22;7653;48.994;9.212;2023-09-30T03:26:34;15.50;80.70
15105;DHT22;7653;48.994;9.212;2023-09-30T03:29:01;15.50;80.80
15105;DHT22;7653;48.994;9.212;2023-09-30T03:31:27;15.50;80.20
15105;DHT22;7653;48.994;9.212;2023-09-30T03:33:52;15.40;80.10
15105;DHT22;7653;48.994;9.212;2023-09-30T03:36:21;15.40;80.30
15105;DHT22;7653;48.994;9.212;2023-09-30T03:38:52;15.30;80.20
15105;DHT22;7653;48.994;9.212;2023-09-30T03:41:22;15.10;81.60
15105;DHT22;7653;48.994;9.212;2023-09-30T03:43:48;15.10;82.40
15105;DHT22;7653;48.994;9.212;2023-09-30T03:46:15;15.00;83.60
15105;DHT22;7653;48.994;9.212;2023-09-30T03:48:42;15.10;83.70
15105;DHT22;7653;48.994;9.212;2023-09-30T03:51:13;15.00;83.00
15105;DHT22;7653;48.994;9.212;2023-09-30T03:53:44;14.90;82.80
15105;DHT22;7653;48.994;9.212;2023-09-30T03:56:10;14.90;84.50
15105;DHT22;7653;48.994;9.212;2023-09-30T03:58:40;14.90;85.70
15105;DHT22;7653;48.994;9.212;2023-09-30T04:01:06;15.00;86.10
15105;DHT22;7653;48.994;9.212;2023-09-30T04:03:33;15.00;84.90
15105;DHT22;7653;48.994;9.212;2023-09-30T04:06:01;15.00;83.60
15105;DHT22;7653;48.994;9.212;2023-09-30T04:08:27;14.80;83.40
15105;DHT22;7653;48.994;9.212;2023-09-30T04:10:54;14.80;83.40
15105;DHT22;7653;48.994;9.212;2023-09-30T04:13:19;14.90;84.70
15105;DHT22;7653;48.994;9.212;2023-09-30T04:15:46;14.90;85.40
15105;DHT22;7653;48.994;9.212;2023-09-30T04:18:13;15.00;85.60
15105;DHT22;7653;48.994;9.212;2023-09-30T04:20:38;15.00;84.60
15105;DHT22;7653;48.994;9.212;2023-09-30T04:23:06;15.10;84.90
15105;DHT22;7653;48.994;9.212;2023-09-30T04:25:32;15.20;83.80
15105;DHT22;7653;48.994;9.212;2023-09-30T04:27:58;15.10;83.70
15105;DHT22;7653;48.994;9.212;2023-09-30T04:30:23;15.20;83.80
15105;DHT22;7653;48.994;9.212;2023-09-30T04:32:49;15.10;83.70
15105;DHT22;7653;48.994;9.212;2023-09-30T04:35:15;14.80;87.50
15105;DHT22;7653;48.994;9.212;2023-09-30T04:37:40;14.70;90.10
15105;DHT22;7653;48.994;9.212;2023-09-30T04:40:08;14.60;91.00
15105;DHT22;7653;48.994;9.212;2023-09-30T04:42:41;14.60;91.20
15105;DHT22;7653;48.994;9.212;2023-09-30T04:45:09;14.60;91.70
15105;DHT22;7653;48.994;9.212;2023-09-30T04:47:35;14.60;91.90
15105;DHT22;7653;48.994;9.212;2023-09-30T04:50:02;14.70;91.60
15105;DHT22;7653;48.994;9.212;2023-09-30T04:52:33;14.70;91.10
15105;DHT22;7653;48.994;9.212;2023-09-30T04:54:59;14.80;91.10
15105;DHT22;7653;48.994;9.212;2023-09-30T04:57:26;14.80;90.50
15105;DHT22;7653;48.994;9.212;2023-09-30T04:59:52;14.90;90.80
15105;DHT22;7653;48.994;9.212;2023-09-30T05:02:17;14.90;90.00
15105;DHT22;7653;48.994;9.212;2023-09-30T05:04:43;14.80;89.60
15105;DHT22;7653;48.994;9.212;2023-09-30T05:07:09;14.70;89.80
15105;DHT22;7653;48.994;9.212;2023-09-30T05:09:35;14.70;90.10
15105;DHT22;7653;48.994;9.212;2023-09-30T05:12:01;14.60;90.40
15105;DHT22;7653;48.994;9.212;2023-09-30T05:14:28;14.60;90.40
15105;DHT22;7653;48.994;9.212;2023-09-30T05:16:54;14.70;91.00
15105;DHT22;7653;48.994;9.212;2023-09-30T05:19:21;14.70;90.30
15105;DHT22;7653;48.994;9.212;2023-09-30T05:21:47;14.70;89.30
15105;DHT22;7653;48.994;9.212;2023-09-30T05:24:14;14.60;88.80
15105;DHT22;7653;48.994;9.212;2023-09-30T05:26:40;14.50;89.40
15105;DHT22;7653;48.994;9.212;2023-09-30T05:29:05;14.40;89.80
15105;DHT22;7653;48.994;9.212;2023-09-30T05:31:33;14.40;90.10
15105;DHT22;7653;48.994;9.212;2023-09-30T05:33:58;14.30;89.90
15105;DHT22;7653;48.994;9.212;2023-09-30T05:36:24;14.20;90.30
15105;DHT22;7653;48.994;9.212;2023-09-30T05:38:50;14.10;90.80
15105;DHT22;7653;48.994;9.212;2023-09-30T05:41:16;14.10;90.90
15105;DHT22;7653;48.994;9.212;2023-09-30T05:43:41;14.20;90.80
15105;DHT22;7653;48.994;9.212;2023-09-30T05:46:08;14.10;90.70
15105;DHT22;7653;48.994;9.212;2023-09-30T05:48:34;14.00;90.80
15105;DHT22;7653;48.994;9.212;2023-09-30T05:51:00;13.90;90.70
15105;DHT22;7653;48.994;9.212;2023-09-30T05:53:27;13.90;90.70
15105;DHT22;7653;48.994;9.212;2023-09-30T05:55:53;13.80;90.70
15105;DHT22;7653;48.994;9.212;2023-09-30T05:58:19;13.80;90.70
15105;DHT22;7653;48.994;9.212;2023-09-30T06:00:45;13.80;90.70
15105;DHT22;7653;48.994;9.212;2023-09-30T06:03:10;13.90;91.00
15105;DHT22;7653;48.994;9.212;2023-09-30T06:05:40;13.90;90.70
15105;DHT22;7653;48.994;9.212;2023-09-30T06:08:08;14.00;90.80
15105;DHT22;7653;48.994;9.212;2023-09-30T06:10:36;14.00;90.80
15105;DHT22;7653;48.994;9.212;2023-09-30T06:13:04;14.10;90.80
15105;DHT22;7653;48.994;9.212;2023-09-30T06:15:30;14.10;90.70
15105;DHT22;7653;48.994;9.212;2023-09-30T06:17:57;14.20;90.80
15105;DHT22;7653;48.994;9.212;2023-09-30T06:20:23;14.30;90.90
15105;DHT22;7653;48.994;9.212;2023-09-30T06:22:51;14.40;90.90
15105;DHT22;7653;48.994;9.212;2023-09-30T06:25:19;14.40;90.90
15105;DHT22;7653;48.994;9.212;2023-09-30T06:27:47;14.40;90.40
15105;DHT22;7653;48.994;9.212;2023-09-30T06:30:17;14.50;90.30
15105;DHT22;7653;48.994;9.212;2023-09-30T06:32:43;14.50;90.20
15105;DHT22;7653;48.994;9.212;2023-09-30T06:35:10;14.50;90.60
15105;DHT22;7653;48.994;9.212;2023-09-30T06:37:40;14.60;90.10
15105;DHT22;7653;48.994;9.212;2023-09-30T06:40:10;14.70;90.80
15105;DHT22;7653;48.994;9.212;2023-09-30T06:42:38;14.70;91.00
15105;DHT22;7653;48.994;9.212;2023-09-30T06:45:06;14.90;90.20
15105;DHT22;7653;48.994;9.212;2023-09-30T06:47:32;14.70;88.50
15105;DHT22;7653;48.994;9.212;2023-09-30T06:50:03;14.60;90.40
15105;DHT22;7653;48.994;9.212;2023-09-30T06:52:43;14.70;91.10
15105;DHT22;7653;48.994;9.212;2023-09-30T06:55:11;15.00;90.90
15105;DHT22;7653;48.994;9.212;2023-09-30T06:57:39;15.10;90.30
15105;DHT22;7653;48.994;9.212;2023-09-30T07:00:07;15.10;90.00
15105;DHT22;7653;48.994;9.212;2023-09-30T07:02:34;15.20;89.40
15105;DHT22;7653;48.994;9.212;2023-09-30T07:05:05;15.30;89.00
15105;DHT22;7653;48.994;9.212;2023-09-30T07:07:30;15.40;88.70
15105;DHT22;7653;48.994;9.212;2023-09-30T07:09:56;15.60;85.00
15105;DHT22;7653;48.994;9.212;2023-09-30T07:12:21;15.60;84.00
15105;DHT22;7653;48.994;9.212;2023-09-30T07:14:47;15.60;82.70
15105;DHT22;7653;48.994;9.212;2023-09-30T07:17:13;15.70;84.10
15105;DHT22;7653;48.994;9.212;2023-09-30T07:19:39;15.70;84.40
15105;DHT22;7653;48.994;9.212;2023-09-30T07:22:05;15.60;86.50
15105;DHT22;7653;48.994;9.212;2023-09-30T07:24:31;15.60;88.10
15105;DHT22;7653;48.994;9.212;2023-09-30T07:26:56;15.70;89.40
15105;DHT22;7653;48.994;9.212;2023-09-30T07:29:22;15.90;87.70
15105;DHT22;7653;48.994;9.212;2023-09-30T07:31:48;16.00;84.50
15105;DHT22;7653;48.994;9.212;2023-09-30T07:34:16;16.00;83.40
15105;DHT22;7653;48.994;9.212;2023-09-30T07:36:46;16.20;83.60
15105;DHT22;7653;48.994;9.212;2023-09-30T07:39:11;16.30;80.20
15105;DHT22;7653;48.994;9.212;2023-09-30T07:41:38;16.50;80.30
15105;DHT22;7653;48.994;9.212;2023-09-30T07:44:04;16.60;77.80
15105;DHT22;7653;48.994;9.212;2023-09-30T07:46:30;16.70;71.00
15105;DHT22;7653;48.994;9.212;2023-09-30T07:48:56;16.70;69.10
15105;DHT22;7653;48.994;9.212;2023-09-30T07:51:24;16.70;71.30
15105;DHT22;7653;48.994;9.212;2023-09-30T07:53:49;16.80;70.70
15105;DHT22;7653;48.994;9.212;2023-09-30T07:56:16;16.80;70.00
15105;DHT22;7653;48.994;9.212;2023-09-30T07:58:41;16.70;72.70
15105;DHT22;7653;48.994;9.212;2023-09-30T08:01:08;16.80;72.90
15105;DHT22;7653;48.994;9.212;2023-09-30T08:03:33;16.80;71.80
15105;DHT22;7653;48.994;9.212;2023-09-30T08:06:02;17.00;71.40
15105;DHT22;7653;48.994;9.212;2023-09-30T08:08:28;17.00;68.60
15105;DHT22;7653;48.994;9.212;2023-09-30T08:10:55;17.10;71.40
15105;DHT22;7653;48.994;9.212;2023-09-30T08:13:24;17.10;67.20
15105;DHT22;7653;48.994;9.212;2023-09-30T08:15:50;17.20;68.30
15105;DHT22;7653;48.994;9.212;2023-09-30T08:18:17;17.20;67.40
15105;DHT22;7653;48.994;9.212;2023-09-30T08:20:43;17.20;68.40
15105;DHT22;7653;48.994;9.212;2023-09-30T08:23:09;17.30;66.80
15105;DHT22;7653;48.994;9.212;2023-09-30T08:25:34;17.10;66.50
15105;DHT22;7653;48.994;9.212;2023-09-30T08:28:00;17.30;66.70
15105;DHT22;7653;48.994;9.212;2023-09-30T08:30:26;17.40;65.50
15105;DHT22;7653;48.994;9.212;2023-09-30T08:32:51;17.60;62.10
15105;DHT22;7653;48.994;9.212;2023-09-30T08:35:17;17.60;61.20
15105;DHT22;7653;48.994;9.212;2023-09-30T08:37:43;17.80;62.30
15105;DHT22;7653;48.994;9.212;2023-09-30T08:40:09;17.90;59.90
15105;DHT22;7653;48.994;9.212;2023-09-30T08:42:35;18.10;57.70
15105;DHT22;7653;48.994;9.212;2023-09-30T08:45:04;18.00;58.90
15105;DHT22;7653;48.994;9.212;2023-09-30T08:47:32;18.10;58.80
15105;DHT22;7653;48.994;9.212;2023-09-30T08:50:00;18.20;56.00
15105;DHT22;7653;48.994;9.212;2023-09-30T08:52:32;18.40;56.20
15105;DHT22;7653;48.994;9.212;2023-09-30T08:54:59;18.40;54.60
15105;DHT22;7653;48.994;9.212;2023-09-30T08:57:25;18.30;55.40
15105;DHT22;7653;48.994;9.212;2023-09-30T08:59:53;18.40;55.00
15105;DHT22;7653;48.994;9.212;2023-09-30T09:02:18;18.40;53.10
15105;DHT22;7653;48.994;9.212;2023-09-30T09:04:45;18.50;53.00
15105;DHT22;7653;48.994;9.212;2023-09-30T09:07:12;18.30;53.10
15105;DHT22;7653;48.994;9.212;2023-09-30T09:09:37;18.30;55.30
15105;DHT22;7653;48.994;9.212;2023-09-30T09:12:03;18.50;53.00
15105;DHT22;7653;48.994;9.212;2023-09-30T09:14:41;18.60;52.50
15105;DHT22;7653;48.994;9.212;2023-09-30T09:17:10;18.50;52.60
15105;DHT22;7653;48.994;9.212;2023-09-30T09:19:36;18.60;50.60
15105;DHT22;7653;48.994;9.212;2023-09-30T09:22:03;18.70;50.20
15105;DHT22;7653;48.994;9.212;2023-09-30T09:24:33;18.70;46.40
15105;DHT22;7653;48.994;9.212;2023-09-30T09:27:10;18.80;44.20
15105;DHT22;7653;48.994;9.212;2023-09-30T09:29:37;18.70;45.20
15105;DHT22;7653;48.994;9.212;2023-09-30T09:32:21;18.30;48.10
15105;DHT22;7653;48.994;9.212;2023-09-30T09:35:00;18.50;48.80
15105;DHT22;7653;48.994;9.212;2023-09-30T09:37:26;18.80;47.50
15105;DHT22;7653;48.994;9.212;2023-09-30T09:39:56;18.80;44.50
15105;DHT22;7653;48.994;9.212;2023-09-30T09:42:32;18.70;46.70
15105;DHT22;7653;48.994;9.212;2023-09-30T09:45:00;18.60;49.10
15105;DHT22;7653;48.994;9.212;2023-09-30T09:47:26;18.70;45.10
15105;DHT22;7653;48.994;9.212;2023-09-30T09:49:52;18.80;48.50
15105;DHT22;7653;48.994;9.212;2023-09-30T09:52:19;19.10;43.80
15105;DHT22;7653;48.994;9.212;2023-09-30T09:54:46;19.00;47.40
15105;DHT22;7653;48.994;9.212;2023-09-30T09:57:12;19.20;48.10
15105;DHT22;7653;48.994;9.212;2023-09-30T09:59:42;19.20;45.70
15105;DHT22;7653;48.994;9.212;2023-09-30T10:02:11;19.40;46.30
15105;DHT22;7653;48.994;9.212;2023-09-30T10:04:43;19.40;44.40
15105;DHT22;7653;48.994;9.212;2023-09-30T10:10:12;19.70;40.60
15105;DHT22;7653;48.994;9.212;2023-09-30T10:12:39;19.60;35.80
15105;DHT22;7653;48.994;9.212;2023-09-30T10:18:11;19.80;35.70
15105;DHT22;7653;48.994;9.212;2023-09-30T10:20:41;19.90;35.30
15105;DHT22;7653;48.994;9.212;2023-09-30T10:25:51;20.00;35.40
15105;DHT22;7653;48.994;9.212;2023-09-30T10:28:42;19.70;34.00
15105;DHT22;7653;48.994;9.212;2023-09-30T10:31:14;19.20;35.80
15105;DHT22;7653;48.994;9.212;2023-09-30T10:36:32;19.40;34.40
15105;DHT22;7653;48.994;9.212;2023-09-30T10:38:58;19.60;34.10
15105;DHT22;7653;48.994;9.212;2023-09-30T10:47:34;20.00;30.50
15105;DHT22;7653;48.994;9.212;2023-09-30T10:49:46;20.00;30.40
15105;DHT22;7653;48.994;9.212;2023-09-30T10:52:22;20.00;29.40
15105;DHT22;7653;48.994;9.212;2023-09-30T10:54:50;20.20;28.70
15105;DHT22;7653;48.994;9.212;2023-09-30T10:57:27;20.30;29.10
15105;DHT22;7653;48.994;9.212;2023-09-30T11:00:11;20.60;28.20
15105;DHT22;7653;48.994;9.212;2023-09-30T11:02:52;20.80;26.90
15105;DHT22;7653;48.994;9.212;2023-09-30T11:05:19;20.70;26.40
15105;DHT22;7653;48.994;9.212;2023-09-30T11:07:49;20.70;25.20
15105;DHT22;7653;48.994;9.212;2023-09-30T11:10:19;20.80;24.90
15105;DHT22;7653;48.994;9.212;2023-09-30T11:12:58;21.00;25.30
15105;DHT22;7653;48.994;9.212;2023-09-30T11:15:24;21.10;26.10
15105;DHT22;7653;48.994;9.212;2023-09-30T11:17:52;21.10;26.10
15105;DHT22;7653;48.994;9.212;2023-09-30T11:20:18;20.70;24.80
15105;DHT22;7653;48.994;9.212;2023-09-30T11:22:44;20.20;25.50
15105;DHT22;7653;48.994;9.212;2023-09-30T11:25:20;20.40;26.00
15105;DHT22;7653;48.994;9.212;2023-09-30T11:27:47;20.30;26.30
15105;DHT22;7653;48.994;9.212;2023-09-30T11:30:13;20.70;25.40
15105;DHT22;7653;48.994;9.212;2023-09-30T11:32:39;20.50;24.20
15105;DHT22;7653;48.994;9.212;2023-09-30T11:35:25;20.50;25.10
15105;DHT22;7653;48.994;9.212;2023-09-30T11:37:51;20.90;26.00
15105;DHT22;7653;48.994;9.212;2023-09-30T11:40:17;21.20;24.50
15105;DHT22;7653;48.994;9.212;2023-09-30T11:43:08;21.40;23.10
15105;DHT22;7653;48.994;9.212;2023-09-30T11:45:34;21.60;23.20
15105;DHT22;7653;48.994;9.212;2023-09-30T11:48:00;21.80;23.60
15105;DHT22;7653;48.994;9.212;2023-09-30T11:50:48;21.70;22.50
15105;DHT22;7653;48.994;9.212;2023-09-30T11:53:17;21.30;22.80
15105;DHT22;7653;48.994;9.212;2023-09-30T11:55:43;20.60;23.90
15105;DHT22;7653;48.994;9.212;2023-09-30T11:58:09;20.20;24.30
15105;DHT22;7653;48.994;9.212;2023-09-30T12:00:35;20.40;24.40
15105;DHT22;7653;48.994;9.212;2023-09-30T12:03:01;20.60;23.20
15105;DHT22;7653;48.994;9.212;2023-09-30T12:05:26;20.70;23.30
15105;DHT22;7653;48.994;9.212;2023-09-30T12:07:52;20.80;22.50
15105;DHT22;7653;48.994;9.212;2023-09-30T12:10:17;20.90;21.20
15105;DHT22;7653;48.994;9.212;2023-09-30T12:12:43;20.90;21.80
15105;DHT22;7653;48.994;9.212;2023-09-30T12:15:10;20.90;21.80
15105;DHT22;7653;48.994;9.212;2023-09-30T12:17:36;21.00;21.90
15105;DHT22;7653;48.994;9.212;2023-09-30T12:20:02;21.10;22.00
15105;DHT22;7653;48.994;9.212;2023-09-30T12:22:29;21.30;21.10
15105;DHT22;7653;48.994;9.212;2023-09-30T12:24:54;21.50;19.80
15105;DHT22;7653;48.994;9.212;2023-09-30T12:27:20;21.60;20.70
15105;DHT22;7653;48.994;9.212;2023-09-30T12:29:45;21.90;20.40
15105;DHT22;7653;48.994;9.212;2023-09-30T12:32:13;22.00;20.40
15105;DHT22;7653;48.994;9.212;2023-09-30T12:34:39;21.60;21.50
15105;DHT22;7653;48.994;9.212;2023-09-30T12:37:06;21.70;21.20
15105;DHT22;7653;48.994;9.212;2023-09-30T12:39:32;21.20;21.90
15105;DHT22;7653;48.994;9.212;2023-09-30T12:41:58;21.00;22.00
15105;DHT22;7653;48.994;9.212;2023-09-30T12:44:24;21.00;23.20
15105;DHT22;7653;48.994;9.212;2023-09-30T12:46:50;21.00;23.30
15105;DHT22;7653;48.994;9.212;2023-09-30T12:49:16;21.00;21.90
15105;DHT22;7653;48.994;9.212;2023-09-30T12:51:43;21.10;21.70
15105;DHT22;7653;48.994;9.212;2023-09-30T12:54:09;21.50;20.00
15105;DHT22;7653;48.994;9.212;2023-09-30T12:56:36;21.40;20.10
15105;DHT22;7653;48.994;9.212;2023-09-30T12:59:01;21.40;19.70
15105;DHT22;7653;48.994;9.212;2023-09-30T13:01:28;20.90;20.50
15105;DHT22;7653;48.994;9.212;2023-09-30T13:03:54;20.90;21.00
15105;DHT22;7653;48.994;9.212;2023-09-30T13:06:20;21.20;19.90
15105;DHT22;7653;48.994;9.212;2023-09-30T13:08:45;20.80;20.90
15105;DHT22;7653;48.994;9.212;2023-09-30T13:11:11;20.80;20.40
15105;DHT22;7653;48.994;9.212;2023-09-30T13:13:37;21.00;20.70
15105;DHT22;7653;48.994;9.212;2023-09-30T13:16:03;21.60;20.50
15105;DHT22;7653;48.994;9.212;2023-09-30T13:18:33;21.70;19.10
15105;DHT22;7653;48.994;9.212;2023-09-30T13:21:00;21.50;17.20
15105;DHT22;7653;48.994;9.212;2023-09-30T13:23:26;21.30;17.80
15105;DHT22;7653;48.994;9.212;2023-09-30T13:25:53;21.60;18.20
15105;DHT22;7653;48.994;9.212;2023-09-30T13:28:18;22.00;19.40
15105;DHT22;7653;48.994;9.212;2023-09-30T13:30:44;22.70;17.90
15105;DHT22;7653;48.994;9.212;2023-09-30T13:33:11;22.60;15.80
15105;DHT22;7653;48.994;9.212;2023-09-30T13:35:36;22.90;14.80
15105;DHT22;7653;48.994;9.212;2023-09-30T13:38:02;21.90;15.80
15105;DHT22;7653;48.994;9.212;2023-09-30T13:40:29;21.80;16.40
15105;DHT22;7653;48.994;9.212;2023-09-30T13:42:54;22.00;16.70
15105;DHT22;7653;48.994;9.212;2023-09-30T13:45:21;21.80;16.50
15105;DHT22;7653;48.994;9.212;2023-09-30T13:47:47;21.60;17.10
15105;DHT22;7653;48.994;9.212;2023-09-30T13:50:13;21.30;16.30
15105;DHT22;7653;48.994;9.212;2023-09-30T13:52:38;21.50;18.00
15105;DHT22;7653;48.994;9.212;2023-09-30T13:55:04;22.10;17.50
15105;DHT22;7653;48.994;9.212;2023-09-30T13:57:30;22.20;16.00
15105;DHT22;7653;48.994;9.212;2023-09-30T13:59:57;22.00;15.90
15105;DHT22;7653;48.994;9.212;2023-09-30T14:02:23;21.80;16.50
15105;DHT22;7653;48.994;9.212;2023-09-30T14:04:49;21.30;17.80
15105;DHT22;7653;48.994;9.212;2023-09-30T14:07:15;20.90;18.30
15105;DHT22;7653;48.994;9.212;2023-09-30T14:09:43;21.20;17.80
15105;DHT22;7653;48.994;9.212;2023-09-30T14:12:09;21.20;17.30
15105;DHT22;7653;48.994;9.212;2023-09-30T14:14:35;21.30;17.40
15105;DHT22;7653;48.994;9.212;2023-09-30T14:17:01;21.80;16.40
15105;DHT22;7653;48.994;9.212;2023-09-30T14:19:35;21.80;15.80
15105;DHT22;7653;48.994;9.212;2023-09-30T14:22:01;21.80;15.40
15105;DHT22;7653;48.994;9.212;2023-09-30T14:24:26;21.80;16.80
15105;DHT22;7653;48.994;9.212;2023-09-30T14:26:52;21.90;15.70
15105;DHT22;7653;48.994;9.212;2023-09-30T14:29:18;21.40;17.20
15105;DHT22;7653;48.994;9.212;2023-09-30T14:31:46;21.60;16.10
15105;DHT22;7653;48.994;9.212;2023-09-30T14:34:12;21.50;16.40
15105;DHT22;7653;48.994;9.212;2023-09-30T14:36:40;22.10;16.30
15105;DHT22;7653;48.994;9.212;2023-09-30T14:39:05;21.70;15.80
15105;DHT22;7653;48.994;9.212;2023-09-30T14:41:31;21.50;17.80
15105;DHT22;7653;48.994;9.212;2023-09-30T14:43:58;21.60;16.10
15105;DHT22;7653;48.994;9.212;2023-09-30T14:46:23;21.10;17.10
15105;DHT22;7653;48.994;9.212;2023-09-30T14:48:49;20.90;16.60
15105;DHT22;7653;48.994;9.212;2023-09-30T14:51:15;21.30;17.00
15105;DHT22;7653;48.994;9.212;2023-09-30T14:53:41;21.30;15.90
15105;DHT22;7653;48.994;9.212;2023-09-30T14:56:18;21.20;17.00
15105;DHT22;7653;48.994;9.212;2023-09-30T14:58:44;21.10;16.30
15105;DHT22;7653;48.994;9.212;2023-09-30T15:01:09;21.50;16.20
15105;DHT22;7653;48.994;9.212;2023-09-30T15:03:35;21.40;14.90
15105;DHT22;7653;48.994;9.212;2023-09-30T15:06:03;21.20;16.60
15105;DHT22;7653;48.994;9.212;2023-09-30T15:08:30;21.90;16.60
15105;DHT22;7653;48.994;9.212;2023-09-30T15:10:57;21.80;15.60
15105;DHT22;7653;48.994;9.212;2023-09-30T15:13:23;21.20;17.70
15105;DHT22;7653;48.994;9.212;2023-09-30T15:15:49;21.30;17.00
15105;DHT22;7653;48.994;9.212;2023-09-30T15:18:14;21.10;17.70
15105;DHT22;7653;48.994;9.212;2023-09-30T15:20:40;21.10;16.50
15105;DHT22;7653;48.994;9.212;2023-09-30T15:23:06;21.00;16.50
15105;DHT22;7653;48.994;9.212;2023-09-30T15:25:32;21.40;16.70
15105;DHT22;7653;48.994;9.212;2023-09-30T15:27:57;21.10;16.60
15105;DHT22;7653;48.994;9.212;2023-09-30T15:30:23;21.20;17.00
15105;DHT22;7653;48.994;9.212;2023-09-30T15:32:49;21.00;15.60
15105;DHT22;7653;48.994;9.212;2023-09-30T15:35:14;20.50;17.30
15105;DHT22;7653;48.994;9.212;2023-09-30T15:37:40;20.70;17.50
15105;DHT22;7653;48.994;9.212;2023-09-30T15:40:06;20.50;17.90
15105;DHT22;7653;48.994;9.212;2023-09-30T15:42:35;20.60;17.40
15105;DHT22;7653;48.994;9.212;2023-09-30T15:45:00;20.50;17.30
15105;DHT22;7653;48.994;9.212;2023-09-30T15:47:27;21.00;17.10
15105;DHT22;7653;48.994;9.212;2023-09-30T15:49:53;20.80;16.50
15105;DHT22;7653;48.994;9.212;2023-09-30T15:52:19;20.60;17.40
15105;DHT22;7653;48.994;9.212;2023-09-30T15:54:44;20.90;17.60
15105;DHT22;7653;48.994;9.212;2023-09-30T15:57:10;21.10;16.80
15105;DHT22;7653;48.994;9.212;2023-09-30T15:59:35;20.90;17.00
15105;DHT22;7653;48.994;9.212;2023-09-30T16:02:01;20.50;17.30